sensor_id;sensor_type;location;lat;lon;timestamp;P1;durP1;ratioP1;P2;durP2;ratioP2
10041;SDS011;5061;49.068;12.058;2022-08-21T00:00:27;1.20;;;1.10;;
10041;SDS011;5061;49.068;12.058;2022-08-21T00:03:48;1.40;;;1.30;;
10041;SDS011;5061;49.068;12.058;2022-08-21T00:07:08;3.23;;;1.23;;
10041;SDS011;5061;49.068;12.058;2022-08-21T00:10:29;1.50;;;1.40;;
10041;SDS011;5061;49.068;12.058;2022-08-21T00:13:50;1.53;;;1.43;;
10041;SDS011;5061;49.068;12.058;2022-08-21T00:17:11;1.40;;;1.30;;
10041;SDS011;5061;49.068;12.058;2022-08-21T00:20:31;1.50;;;1.40;;
10041;SDS011;5061;49.068;12.058;2022-08-21T00:23:54;1.40;;;1.30;;
10041;SDS011;5061;49.068;12.058;2022-08-21T00:27:14;1.30;;;1.20;;
10041;SDS011;5061;49.068;12.058;2022-08-21T00:30:35;1.03;;;0.93;;
10041;SDS011;5061;49.068;12.058;2022-08-21T00:33:56;1.10;;;0.90;;
10041;SDS011;5061;49.068;12.058;2022-08-21T00:37:17;1.00;;;1.00;;
10041;SDS011;5061;49.068;12.058;2022-08-21T00:40:41;0.90;;;0.90;;
10041;SDS011;5061;49.068;12.058;2022-08-21T00:44:02;1.63;;;1.17;;
10041;SDS011;5061;49.068;12.058;2022-08-21T00:47:23;1.30;;;1.20;;
10041;SDS011;5061;49.068;12.058;2022-08-21T00:51:00;1.20;;;1.10;;
10041;SDS011;5061;49.068;12.058;2022-08-21T00:54:27;1.30;;;1.20;;
10041;SDS011;5061;49.068;12.058;2022-08-21T00:57:52;1.30;;;1.20;;
10041;SDS011;5061;49.068;12.058;2022-08-21T01:01:16;1.20;;;1.10;;
10041;SDS011;5061;49.068;12.058;2022-08-21T01:04:37;0.90;;;0.90;;
10041;SDS011;5061;49.068;12.058;2022-08-21T01:07:58;1.43;;;1.33;;
10041;SDS011;5061;49.068;12.058;2022-08-21T01:11:19;1.97;;;1.70;;
10041;SDS011;5061;49.068;12.058;2022-08-21T01:14:40;1.20;;;1.10;;
10041;SDS011;5061;49.068;12.058;2022-08-21T01:18:03;1.10;;;1.00;;
10041;SDS011;5061;49.068;12.058;2022-08-21T01:21:26;1.33;;;1.23;;
10041;SDS011;5061;49.068;12.058;2022-08-21T01:24:48;1.00;;;0.90;;
10041;SDS011;5061;49.068;12.058;2022-08-21T01:28:12;1.57;;;1.43;;
10041;SDS011;5061;49.068;12.058;2022-08-21T01:31:34;1.63;;;1.23;;
10041;SDS011;5061;49.068;12.058;2022-08-21T01:34:54;1.37;;;1.27;;
10041;SDS011;5061;49.068;12.058;2022-08-21T01:38:15;1.30;;;1.20;;
10041;SDS011;5061;49.068;12.058;2022-08-21T01:41:36;1.40;;;1.30;;
10041;SDS011;5061;49.068;12.058;2022-08-21T01:44:56;1.33;;;1.23;;
10041;SDS011;5061;49.068;12.058;2022-08-21T01:48:17;1.30;;;1.20;;
10041;SDS011;5061;49.068;12.058;2022-08-21T01:51:38;1.10;;;1.00;;
10041;SDS011;5061;49.068;12.058;2022-08-21T01:54:58;1.10;;;1.00;;
10041;SDS011;5061;49.068;12.058;2022-08-21T01:58:20;0.80;;;0.80;;
10041;SDS011;5061;49.068;12.058;2022-08-21T02:01:40;1.53;;;1.43;;
10041;SDS011;5061;49.068;12.058;2022-08-21T02:05:01;1.50;;;1.40;;
10041;SDS011;5061;49.068;12.058;2022-08-21T02:08:23;2.20;;;2.00;;
10041;SDS011;5061;49.068;12.058;2022-08-21T02:11:44;1.70;;;1.60;;
10041;SDS011;5061;49.068;12.058;2022-08-21T02:15:05;1.53;;;1.43;;
10041;SDS011;5061;49.068;12.058;2022-08-21T02:18:27;1.50;;;1.40;;
10041;SDS011;5061;49.068;12.058;2022-08-21T02:21:47;1.50;;;1.40;;
10041;SDS011;5061;49.068;12.058;2022-08-21T02:25:08;1.27;;;1.17;;
10041;SDS011;5061;49.068;12.058;2022-08-21T02:28:29;1.43;;;1.33;;
10041;SDS011;5061;49.068;12.058;2022-08-21T02:31:49;1.50;;;1.40;;
10041;SDS011;5061;49.068;12.058;2022-08-21T02:35:10;1.20;;;1.10;;
10041;SDS011;5061;49.068;12.058;2022-08-21T02:38:33;1.20;;;1.10;;
10041;SDS011;5061;49.068;12.058;2022-08-21T02:41:57;1.60;;;1.50;;
10041;SDS011;5061;49.068;12.058;2022-08-21T02:45:18;1.30;;;1.20;;
10041;SDS011;5061;49.068;12.058;2022-08-21T02:48:39;1.40;;;1.30;;
10041;SDS011;5061;49.068;12.058;2022-08-21T02:52:00;1.30;;;1.20;;
10041;SDS011;5061;49.068;12.058;2022-08-21T02:55:22;1.23;;;1.13;;
10041;SDS011;5061;49.068;12.058;2022-08-21T02:58:45;1.10;;;1.00;;
10041;SDS011;5061;49.068;12.058;2022-08-21T03:02:08;1.10;;;1.00;;
10041;SDS011;5061;49.068;12.058;2022-08-21T03:05:31;1.20;;;1.10;;
10041;SDS011;5061;49.068;12.058;2022-08-21T03:08:53;1.13;;;1.03;;
10041;SDS011;5061;49.068;12.058;2022-08-21T03:12:14;1.67;;;1.20;;
10041;SDS011;5061;49.068;12.058;2022-08-21T03:15:34;1.60;;;1.50;;
10041;SDS011;5061;49.068;12.058;2022-08-21T03:18:55;1.50;;;1.40;;
10041;SDS011;5061;49.068;12.058;2022-08-21T03:22:16;1.10;;;1.00;;
10041;SDS011;5061;49.068;12.058;2022-08-21T03:25:37;0.90;;;0.90;;
10041;SDS011;5061;49.068;12.058;2022-08-21T03:28:58;1.10;;;1.00;;
10041;SDS011;5061;49.068;12.058;2022-08-21T03:32:19;1.30;;;1.20;;
10041;SDS011;5061;49.068;12.058;2022-08-21T03:35:40;1.50;;;1.40;;
10041;SDS011;5061;49.068;12.058;2022-08-21T03:39:06;1.13;;;1.03;;
10041;SDS011;5061;49.068;12.058;2022-08-21T03:42:26;1.00;;;0.83;;
10041;SDS011;5061;49.068;12.058;2022-08-21T03:45:47;1.37;;;1.27;;
10041;SDS011;5061;49.068;12.058;2022-08-21T03:49:08;0.80;;;0.80;;
10041;SDS011;5061;49.068;12.058;2022-08-21T03:52:28;0.80;;;0.80;;
10041;SDS011;5061;49.068;12.058;2022-08-21T03:55:49;1.40;;;1.30;;
10041;SDS011;5061;49.068;12.058;2022-08-21T03:59:12;1.60;;;1.40;;
10041;SDS011;5061;49.068;12.058;2022-08-21T04:02:33;1.30;;;1.20;;
10041;SDS011;5061;49.068;12.058;2022-08-21T04:05:54;1.37;;;1.27;;
10041;SDS011;5061;49.068;12.058;2022-08-21T04:09:15;1.30;;;1.20;;
10041;SDS011;5061;49.068;12.058;2022-08-21T04:12:36;1.77;;;1.67;;
10041;SDS011;5061;49.068;12.058;2022-08-21T04:15:57;1.40;;;1.30;;
10041;SDS011;5061;49.068;12.058;2022-08-21T04:19:20;1.60;;;1.50;;
10041;SDS011;5061;49.068;12.058;2022-08-21T04:22:41;1.30;;;1.20;;
10041;SDS011;5061;49.068;12.058;2022-08-21T04:26:02;1.00;;;0.90;;
10041;SDS011;5061;49.068;12.058;2022-08-21T04:29:22;1.27;;;1.17;;
10041;SDS011;5061;49.068;12.058;2022-08-21T04:32:44;1.23;;;1.13;;
10041;SDS011;5061;49.068;12.058;2022-08-21T04:36:06;1.67;;;1.57;;
10041;SDS011;5061;49.068;12.058;2022-08-21T04:39:27;1.90;;;1.20;;
10041;SDS011;5061;49.068;12.058;2022-08-21T04:42:49;1.10;;;1.00;;
10041;SDS011;5061;49.068;12.058;2022-08-21T04:46:11;1.43;;;1.33;;
10041;SDS011;5061;49.068;12.058;2022-08-21T04:49:31;1.40;;;1.30;;
10041;SDS011;5061;49.068;12.058;2022-08-21T04:52:53;3.27;;;1.67;;
10041;SDS011;5061;49.068;12.058;2022-08-21T04:56:15;1.60;;;1.50;;
10041;SDS011;5061;49.068;12.058;2022-08-21T04:59:46;1.53;;;1.43;;
10041;SDS011;5061;49.068;12.058;2022-08-21T05:03:09;1.33;;;1.23;;
10041;SDS011;5061;49.068;12.058;2022-08-21T05:06:33;1.10;;;1.00;;
10041;SDS011;5061;49.068;12.058;2022-08-21T05:09:56;1.23;;;1.13;;
10041;SDS011;5061;49.068;12.058;2022-08-21T05:13:19;1.10;;;1.00;;
10041;SDS011;5061;49.068;12.058;2022-08-21T05:16:40;1.37;;;1.27;;
10041;SDS011;5061;49.068;12.058;2022-08-21T05:20:01;1.33;;;1.23;;
10041;SDS011;5061;49.068;12.058;2022-08-21T05:23:23;1.60;;;1.50;;
10041;SDS011;5061;49.068;12.058;2022-08-21T05:26:44;1.57;;;1.30;;
10041;SDS011;5061;49.068;12.058;2022-08-21T05:30:06;1.33;;;1.20;;
10041;SDS011;5061;49.068;12.058;2022-08-21T05:33:28;1.37;;;1.27;;
10041;SDS011;5061;49.068;12.058;2022-08-21T05:36:49;1.30;;;1.20;;
10041;SDS011;5061;49.068;12.058;2022-08-21T05:40:10;1.10;;;1.00;;
10041;SDS011;5061;49.068;12.058;2022-08-21T05:43:31;1.30;;;1.20;;
10041;SDS011;5061;49.068;12.058;2022-08-21T05:47:01;1.63;;;1.53;;
10041;SDS011;5061;49.068;12.058;2022-08-21T05:50:23;1.33;;;1.23;;
10041;SDS011;5061;49.068;12.058;2022-08-21T05:53:44;1.07;;;0.97;;
10041;SDS011;5061;49.068;12.058;2022-08-21T05:57:05;1.17;;;1.07;;
10041;SDS011;5061;49.068;12.058;2022-08-21T06:00:25;1.37;;;1.27;;
10041;SDS011;5061;49.068;12.058;2022-08-21T06:03:46;1.20;;;1.10;;
10041;SDS011;5061;49.068;12.058;2022-08-21T06:07:06;1.17;;;1.07;;
10041;SDS011;5061;49.068;12.058;2022-08-21T06:10:28;1.57;;;1.40;;
10041;SDS011;5061;49.068;12.058;2022-08-21T06:13:48;2.00;;;1.80;;
10041;SDS011;5061;49.068;12.058;2022-08-21T06:17:10;2.07;;;1.87;;
10041;SDS011;5061;49.068;12.058;2022-08-21T06:20:31;1.83;;;1.73;;
10041;SDS011;5061;49.068;12.058;2022-08-21T06:23:52;1.60;;;1.50;;
10041;SDS011;5061;49.068;12.058;2022-08-21T06:27:13;1.60;;;1.50;;
10041;SDS011;5061;49.068;12.058;2022-08-21T06:30:34;1.67;;;1.57;;
10041;SDS011;5061;49.068;12.058;2022-08-21T06:33:56;2.53;;;2.20;;
10041;SDS011;5061;49.068;12.058;2022-08-21T06:37:17;2.03;;;1.83;;
10041;SDS011;5061;49.068;12.058;2022-08-21T06:40:37;1.60;;;1.50;;
10041;SDS011;5061;49.068;12.058;2022-08-21T06:43:59;1.73;;;1.63;;
10041;SDS011;5061;49.068;12.058;2022-08-21T06:47:20;1.17;;;1.07;;
10041;SDS011;5061;49.068;12.058;2022-08-21T06:50:40;1.43;;;1.33;;
10041;SDS011;5061;49.068;12.058;2022-08-21T06:54:01;1.70;;;1.60;;
10041;SDS011;5061;49.068;12.058;2022-08-21T06:57:21;2.83;;;2.43;;
10041;SDS011;5061;49.068;12.058;2022-08-21T07:00:43;3.23;;;2.30;;
10041;SDS011;5061;49.068;12.058;2022-08-21T07:04:05;3.13;;;2.40;;
10041;SDS011;5061;49.068;12.058;2022-08-21T07:07:26;2.00;;;1.90;;
10041;SDS011;5061;49.068;12.058;2022-08-21T07:10:47;2.30;;;2.10;;
10041;SDS011;5061;49.068;12.058;2022-08-21T07:14:08;3.23;;;2.73;;
10041;SDS011;5061;49.068;12.058;2022-08-21T07:17:29;2.50;;;2.07;;
10041;SDS011;5061;49.068;12.058;2022-08-21T07:20:50;1.77;;;1.67;;
10041;SDS011;5061;49.068;12.058;2022-08-21T07:24:10;2.30;;;2.10;;
10041;SDS011;5061;49.068;12.058;2022-08-21T07:27:31;1.50;;;1.40;;
10041;SDS011;5061;49.068;12.058;2022-08-21T07:30:53;1.67;;;1.57;;
10041;SDS011;5061;49.068;12.058;2022-08-21T07:34:15;1.70;;;1.60;;
10041;SDS011;5061;49.068;12.058;2022-08-21T07:37:36;2.10;;;1.90;;
10041;SDS011;5061;49.068;12.058;2022-08-21T07:40:57;2.23;;;2.03;;
10041;SDS011;5061;49.068;12.058;2022-08-21T07:44:21;2.37;;;2.00;;
10041;SDS011;5061;49.068;12.058;2022-08-21T07:47:41;2.10;;;1.90;;
10041;SDS011;5061;49.068;12.058;2022-08-21T07:51:03;2.10;;;1.70;;
10041;SDS011;5061;49.068;12.058;2022-08-21T07:54:27;1.60;;;1.50;;
10041;SDS011;5061;49.068;12.058;2022-08-21T07:57:48;2.23;;;2.03;;
10041;SDS011;5061;49.068;12.058;2022-08-21T08:01:09;3.50;;;3.10;;
10041;SDS011;5061;49.068;12.058;2022-08-21T08:04:29;3.63;;;3.10;;
10041;SDS011;5061;49.068;12.058;2022-08-21T08:07:50;3.10;;;2.50;;
10041;SDS011;5061;49.068;12.058;2022-08-21T08:11:11;2.37;;;2.17;;
10041;SDS011;5061;49.068;12.058;2022-08-21T08:14:35;3.90;;;3.20;;
10041;SDS011;5061;49.068;12.058;2022-08-21T08:17:56;3.10;;;2.80;;
10041;SDS011;5061;49.068;12.058;2022-08-21T08:21:17;3.30;;;3.00;;
10041;SDS011;5061;49.068;12.058;2022-08-21T08:24:40;2.17;;;1.97;;
10041;SDS011;5061;49.068;12.058;2022-08-21T08:28:01;2.20;;;2.00;;
10041;SDS011;5061;49.068;12.058;2022-08-21T08:31:22;2.60;;;2.30;;
10041;SDS011;5061;49.068;12.058;2022-08-21T08:34:43;2.63;;;2.40;;
10041;SDS011;5061;49.068;12.058;2022-08-21T08:38:04;2.53;;;2.33;;
10041;SDS011;5061;49.068;12.058;2022-08-21T08:41:25;2.77;;;1.97;;
10041;SDS011;5061;49.068;12.058;2022-08-21T08:44:46;2.10;;;1.90;;
10041;SDS011;5061;49.068;12.058;2022-08-21T08:48:08;1.60;;;1.50;;
10041;SDS011;5061;49.068;12.058;2022-08-21T08:51:39;3.43;;;3.00;;
10041;SDS011;5061;49.068;12.058;2022-08-21T08:55:26;2.67;;;2.47;;
10041;SDS011;5061;49.068;12.058;2022-08-21T08:58:48;3.40;;;3.00;;
10041;SDS011;5061;49.068;12.058;2022-08-21T09:02:12;6.00;;;4.60;;
10041;SDS011;5061;49.068;12.058;2022-08-21T09:05:48;3.73;;;3.07;;
10041;SDS011;5061;49.068;12.058;2022-08-21T09:09:25;2.40;;;2.20;;
10041;SDS011;5061;49.068;12.058;2022-08-21T09:12:52;2.93;;;2.60;;
10041;SDS011;5061;49.068;12.058;2022-08-21T09:23:23;2.60;;;2.23;;
10041;SDS011;5061;49.068;12.058;2022-08-21T09:27:07;3.33;;;2.97;;
10041;SDS011;5061;49.068;12.058;2022-08-21T09:30:32;2.90;;;2.63;;
10041;SDS011;5061;49.068;12.058;2022-08-21T09:34:03;3.33;;;3.03;;
10041;SDS011;5061;49.068;12.058;2022-08-21T09:37:30;2.70;;;2.47;;
10041;SDS011;5061;49.068;12.058;2022-08-21T09:40:56;3.30;;;2.80;;
10041;SDS011;5061;49.068;12.058;2022-08-21T09:44:26;3.20;;;2.90;;
10041;SDS011;5061;49.068;12.058;2022-08-21T09:47:48;2.73;;;2.53;;
10041;SDS011;5061;49.068;12.058;2022-08-21T09:51:11;2.93;;;2.63;;
10041;SDS011;5061;49.068;12.058;2022-08-21T09:54:36;3.40;;;2.70;;
10041;SDS011;5061;49.068;12.058;2022-08-21T09:57:59;2.87;;;2.50;;
10041;SDS011;5061;49.068;12.058;2022-08-21T10:01:22;3.47;;;3.17;;
10041;SDS011;5061;49.068;12.058;2022-08-21T10:04:49;4.50;;;3.83;;
10041;SDS011;5061;49.068;12.058;2022-08-21T10:08:19;3.53;;;3.03;;
10041;SDS011;5061;49.068;12.058;2022-08-21T10:23:27;3.57;;;3.23;;
10041;SDS011;5061;49.068;12.058;2022-08-21T10:26:57;3.70;;;3.10;;
10041;SDS011;5061;49.068;12.058;2022-08-21T10:37:27;2.60;;;2.40;;
10041;SDS011;5061;49.068;12.058;2022-08-21T10:41:13;4.10;;;3.70;;
10041;SDS011;5061;49.068;12.058;2022-08-21T10:48:36;3.20;;;2.90;;
10041;SDS011;5061;49.068;12.058;2022-08-21T10:52:11;3.50;;;3.20;;
10041;SDS011;5061;49.068;12.058;2022-08-21T10:55:43;4.77;;;4.00;;
10041;SDS011;5061;49.068;12.058;2022-08-21T11:03:16;3.93;;;3.53;;
10041;SDS011;5061;49.068;12.058;2022-08-21T11:06:42;4.97;;;4.43;;
10041;SDS011;5061;49.068;12.058;2022-08-21T11:10:10;6.37;;;5.77;;
10041;SDS011;5061;49.068;12.058;2022-08-21T11:13:45;8.23;;;6.80;;
10041;SDS011;5061;49.068;12.058;2022-08-21T11:17:14;4.63;;;4.23;;
10041;SDS011;5061;49.068;12.058;2022-08-21T11:20:42;4.00;;;3.50;;
10041;SDS011;5061;49.068;12.058;2022-08-21T11:27:46;6.77;;;6.07;;
10041;SDS011;5061;49.068;12.058;2022-08-21T11:31:27;6.50;;;5.57;;
10041;SDS011;5061;49.068;12.058;2022-08-21T11:35:02;6.07;;;5.47;;
10041;SDS011;5061;49.068;12.058;2022-08-21T11:45:39;6.47;;;5.07;;
10041;SDS011;5061;49.068;12.058;2022-08-21T11:49:34;5.57;;;5.07;;
10041;SDS011;5061;49.068;12.058;2022-08-21T11:56:45;4.03;;;3.73;;
10041;SDS011;5061;49.068;12.058;2022-08-21T12:00:16;4.10;;;3.70;;
10041;SDS011;5061;49.068;12.058;2022-08-21T12:03:51;7.10;;;5.37;;
10041;SDS011;5061;49.068;12.058;2022-08-21T12:07:28;6.07;;;5.57;;
10041;SDS011;5061;49.068;12.058;2022-08-21T12:14:39;5.73;;;5.07;;
10041;SDS011;5061;49.068;12.058;2022-08-21T12:18:06;6.63;;;5.90;;
10041;SDS011;5061;49.068;12.058;2022-08-21T12:21:51;7.07;;;6.37;;
10041;SDS011;5061;49.068;12.058;2022-08-21T12:25:24;4.03;;;3.60;;
10041;SDS011;5061;49.068;12.058;2022-08-21T12:28:45;3.57;;;3.27;;
10041;SDS011;5061;49.068;12.058;2022-08-21T12:39:04;5.07;;;4.63;;
10041;SDS011;5061;49.068;12.058;2022-08-21T12:45:59;3.70;;;3.40;;
10041;SDS011;5061;49.068;12.058;2022-08-21T12:49:32;2.93;;;2.60;;
10041;SDS011;5061;49.068;12.058;2022-08-21T12:53:10;3.13;;;2.90;;
10041;SDS011;5061;49.068;12.058;2022-08-21T12:56:55;3.90;;;3.60;;
10041;SDS011;5061;49.068;12.058;2022-08-21T13:00:20;3.30;;;3.00;;
10041;SDS011;5061;49.068;12.058;2022-08-21T13:03:42;4.10;;;3.70;;
10041;SDS011;5061;49.068;12.058;2022-08-21T13:07:08;3.67;;;3.37;;
10041;SDS011;5061;49.068;12.058;2022-08-21T13:10:32;3.00;;;2.80;;
10041;SDS011;5061;49.068;12.058;2022-08-21T13:13:54;3.20;;;2.90;;
10041;SDS011;5061;49.068;12.058;2022-08-21T13:17:17;2.53;;;2.33;;
10041;SDS011;5061;49.068;12.058;2022-08-21T13:20:40;3.57;;;3.27;;
10041;SDS011;5061;49.068;12.058;2022-08-21T13:24:16;3.47;;;2.57;;
10041;SDS011;5061;49.068;12.058;2022-08-21T13:27:40;3.67;;;3.37;;
10041;SDS011;5061;49.068;12.058;2022-08-21T13:31:05;3.30;;;3.00;;
10041;SDS011;5061;49.068;12.058;2022-08-21T13:34:31;3.13;;;2.83;;
10041;SDS011;5061;49.068;12.058;2022-08-21T13:37:54;3.80;;;3.50;;
10041;SDS011;5061;49.068;12.058;2022-08-21T13:44:42;3.37;;;3.10;;
10041;SDS011;5061;49.068;12.058;2022-08-21T13:48:05;4.00;;;3.60;;
10041;SDS011;5061;49.068;12.058;2022-08-21T13:51:29;2.83;;;2.63;;
10041;SDS011;5061;49.068;12.058;2022-08-21T13:55:06;2.00;;;1.90;;
10041;SDS011;5061;49.068;12.058;2022-08-21T13:58:45;2.40;;;2.20;;
10041;SDS011;5061;49.068;12.058;2022-08-21T14:02:19;2.97;;;2.67;;
10041;SDS011;5061;49.068;12.058;2022-08-21T14:05:44;2.53;;;2.33;;
10041;SDS011;5061;49.068;12.058;2022-08-21T14:09:13;2.30;;;2.10;;
10041;SDS011;5061;49.068;12.058;2022-08-21T14:12:51;3.53;;;3.23;;
10041;SDS011;5061;49.068;12.058;2022-08-21T14:23:02;2.00;;;1.90;;
10041;SDS011;5061;49.068;12.058;2022-08-21T14:26:23;1.93;;;1.80;;
10041;SDS011;5061;49.068;12.058;2022-08-21T14:29:43;2.40;;;2.20;;
10041;SDS011;5061;49.068;12.058;2022-08-21T14:33:07;2.37;;;2.17;;
10041;SDS011;5061;49.068;12.058;2022-08-21T14:36:32;3.00;;;2.70;;
10041;SDS011;5061;49.068;12.058;2022-08-21T14:39:53;3.23;;;2.97;;
10041;SDS011;5061;49.068;12.058;2022-08-21T14:43:14;3.03;;;2.83;;
10041;SDS011;5061;49.068;12.058;2022-08-21T14:46:34;3.47;;;2.40;;
10041;SDS011;5061;49.068;12.058;2022-08-21T14:49:56;2.33;;;2.13;;
10041;SDS011;5061;49.068;12.058;2022-08-21T14:53:17;2.10;;;2.00;;
10041;SDS011;5061;49.068;12.058;2022-08-21T14:56:37;3.10;;;2.80;;
10041;SDS011;5061;49.068;12.058;2022-08-21T14:59:58;2.93;;;2.40;;
10041;SDS011;5061;49.068;12.058;2022-08-21T15:03:19;2.30;;;2.10;;
10041;SDS011;5061;49.068;12.058;2022-08-21T15:06:41;2.63;;;2.43;;
10041;SDS011;5061;49.068;12.058;2022-08-21T15:10:02;2.53;;;2.13;;
10041;SDS011;5061;49.068;12.058;2022-08-21T15:13:24;2.40;;;2.20;;
10041;SDS011;5061;49.068;12.058;2022-08-21T15:16:45;2.30;;;2.10;;
10041;SDS011;5061;49.068;12.058;2022-08-21T15:20:07;2.40;;;2.20;;
10041;SDS011;5061;49.068;12.058;2022-08-21T15:23:29;2.73;;;2.50;;
10041;SDS011;5061;49.068;12.058;2022-08-21T15:26:50;2.33;;;2.13;;
10041;SDS011;5061;49.068;12.058;2022-08-21T15:30:12;2.33;;;2.00;;
10041;SDS011;5061;49.068;12.058;2022-08-21T15:33:33;2.37;;;2.17;;
10041;SDS011;5061;49.068;12.058;2022-08-21T15:36:54;2.10;;;2.00;;
10041;SDS011;5061;49.068;12.058;2022-08-21T15:40:16;1.50;;;1.40;;
10041;SDS011;5061;49.068;12.058;2022-08-21T15:43:50;1.67;;;1.57;;
10041;SDS011;5061;49.068;12.058;2022-08-21T15:47:13;2.93;;;2.63;;
10041;SDS011;5061;49.068;12.058;2022-08-21T15:50:36;2.30;;;2.10;;
10041;SDS011;5061;49.068;12.058;2022-08-21T15:53:57;2.20;;;2.00;;
10041;SDS011;5061;49.068;12.058;2022-08-21T15:57:20;2.30;;;2.10;;
10041;SDS011;5061;49.068;12.058;2022-08-21T16:00:43;2.30;;;2.10;;
10041;SDS011;5061;49.068;12.058;2022-08-21T16:04:06;2.80;;;2.50;;
10041;SDS011;5061;49.068;12.058;2022-08-21T16:07:28;1.80;;;1.70;;
10041;SDS011;5061;49.068;12.058;2022-08-21T16:10:49;1.80;;;1.70;;
10041;SDS011;5061;49.068;12.058;2022-08-21T16:14:12;1.80;;;1.70;;
10041;SDS011;5061;49.068;12.058;2022-08-21T16:17:36;2.37;;;2.17;;
10041;SDS011;5061;49.068;12.058;2022-08-21T16:20:58;1.80;;;1.70;;
10041;SDS011;5061;49.068;12.058;2022-08-21T16:24:18;1.83;;;1.73;;
10041;SDS011;5061;49.068;12.058;2022-08-21T16:27:39;3.27;;;2.40;;
10041;SDS011;5061;49.068;12.058;2022-08-21T16:31:02;1.77;;;1.67;;
10041;SDS011;5061;49.068;12.058;2022-08-21T16:34:23;1.90;;;1.80;;
10041;SDS011;5061;49.068;12.058;2022-08-21T16:37:46;1.60;;;1.50;;
10041;SDS011;5061;49.068;12.058;2022-08-21T16:41:08;2.40;;;2.20;;
10041;SDS011;5061;49.068;12.058;2022-08-21T16:44:33;2.77;;;2.53;;
10041;SDS011;5061;49.068;12.058;2022-08-21T16:47:54;2.20;;;2.03;;
10041;SDS011;5061;49.068;12.058;2022-08-21T16:51:15;2.80;;;2.50;;
10041;SDS011;5061;49.068;12.058;2022-08-21T16:54:36;2.27;;;1.93;;
10041;SDS011;5061;49.068;12.058;2022-08-21T16:57:57;1.80;;;1.70;;
10041;SDS011;5061;49.068;12.058;2022-08-21T17:01:20;1.47;;;1.37;;
10041;SDS011;5061;49.068;12.058;2022-08-21T17:04:47;2.27;;;2.07;;
10041;SDS011;5061;49.068;12.058;2022-08-21T17:08:08;1.60;;;1.50;;
10041;SDS011;5061;49.068;12.058;2022-08-21T17:11:40;1.50;;;1.40;;
10041;SDS011;5061;49.068;12.058;2022-08-21T17:15:07;1.97;;;1.83;;
10041;SDS011;5061;49.068;12.058;2022-08-21T17:18:32;1.30;;;1.20;;
10041;SDS011;5061;49.068;12.058;2022-08-21T17:21:52;1.70;;;1.60;;
10041;SDS011;5061;49.068;12.058;2022-08-21T17:25:13;1.60;;;1.50;;
10041;SDS011;5061;49.068;12.058;2022-08-21T17:28:35;1.90;;;1.50;;
10041;SDS011;5061;49.068;12.058;2022-08-21T17:31:57;1.63;;;1.53;;
10041;SDS011;5061;49.068;12.058;2022-08-21T17:35:18;2.20;;;1.90;;
10041;SDS011;5061;49.068;12.058;2022-08-21T17:38:40;2.20;;;2.00;;
10041;SDS011;5061;49.068;12.058;2022-08-21T17:42:03;2.40;;;2.13;;
10041;SDS011;5061;49.068;12.058;2022-08-21T17:45:28;2.17;;;2.00;;
10041;SDS011;5061;49.068;12.058;2022-08-21T17:48:49;2.03;;;1.93;;
10041;SDS011;5061;49.068;12.058;2022-08-21T17:52:10;2.00;;;1.90;;
10041;SDS011;5061;49.068;12.058;2022-08-21T17:55:30;2.03;;;1.83;;
10041;SDS011;5061;49.068;12.058;2022-08-21T17:58:53;1.90;;;1.70;;
10041;SDS011;5061;49.068;12.058;2022-08-21T18:02:14;1.73;;;1.63;;
10041;SDS011;5061;49.068;12.058;2022-08-21T18:05:35;2.13;;;1.80;;
10041;SDS011;5061;49.068;12.058;2022-08-21T18:08:56;2.00;;;1.80;;
10041;SDS011;5061;49.068;12.058;2022-08-21T18:12:20;1.60;;;1.50;;
10041;SDS011;5061;49.068;12.058;2022-08-21T18:15:42;2.00;;;1.77;;
10041;SDS011;5061;49.068;12.058;2022-08-21T18:19:07;1.83;;;1.73;;
10041;SDS011;5061;49.068;12.058;2022-08-21T18:22:29;2.00;;;1.90;;
10041;SDS011;5061;49.068;12.058;2022-08-21T18:25:52;1.80;;;1.70;;
10041;SDS011;5061;49.068;12.058;2022-08-21T18:29:16;2.13;;;1.90;;
10041;SDS011;5061;49.068;12.058;2022-08-21T18:32:39;1.90;;;1.80;;
10041;SDS011;5061;49.068;12.058;2022-08-21T18:36:00;2.07;;;1.87;;
10041;SDS011;5061;49.068;12.058;2022-08-21T18:39:22;1.60;;;1.50;;
10041;SDS011;5061;49.068;12.058;2022-08-21T18:42:44;2.27;;;2.07;;
10041;SDS011;5061;49.068;12.058;2022-08-21T18:46:06;2.27;;;2.07;;
10041;SDS011;5061;49.068;12.058;2022-08-21T18:49:27;2.20;;;2.00;;
10041;SDS011;5061;49.068;12.058;2022-08-21T18:52:48;2.00;;;1.90;;
10041;SDS011;5061;49.068;12.058;2022-08-21T18:56:09;2.03;;;1.77;;
10041;SDS011;5061;49.068;12.058;2022-08-21T18:59:30;2.20;;;1.80;;
10041;SDS011;5061;49.068;12.058;2022-08-21T19:02:50;2.23;;;2.03;;
10041;SDS011;5061;49.068;12.058;2022-08-21T19:06:11;2.27;;;2.07;;
10041;SDS011;5061;49.068;12.058;2022-08-21T19:09:32;2.70;;;1.80;;
10041;SDS011;5061;49.068;12.058;2022-08-21T19:12:52;2.00;;;1.83;;
10041;SDS011;5061;49.068;12.058;2022-08-21T19:16:14;1.73;;;1.63;;
10041;SDS011;5061;49.068;12.058;2022-08-21T19:19:36;2.57;;;2.37;;
10041;SDS011;5061;49.068;12.058;2022-08-21T19:22:57;2.33;;;2.13;;
10041;SDS011;5061;49.068;12.058;2022-08-21T19:26:18;3.10;;;1.90;;
10041;SDS011;5061;49.068;12.058;2022-08-21T19:29:41;2.10;;;1.93;;
10041;SDS011;5061;49.068;12.058;2022-08-21T19:33:02;1.90;;;1.70;;
10041;SDS011;5061;49.068;12.058;2022-08-21T19:36:25;1.60;;;1.50;;
10041;SDS011;5061;49.068;12.058;2022-08-21T19:39:46;1.57;;;1.40;;
10041;SDS011;5061;49.068;12.058;2022-08-21T19:43:07;2.00;;;1.83;;
10041;SDS011;5061;49.068;12.058;2022-08-21T19:46:32;2.20;;;1.73;;
10041;SDS011;5061;49.068;12.058;2022-08-21T19:49:59;1.70;;;1.60;;
10041;SDS011;5061;49.068;12.058;2022-08-21T19:53:23;2.07;;;1.87;;
10041;SDS011;5061;49.068;12.058;2022-08-21T19:56:45;1.70;;;1.60;;
10041;SDS011;5061;49.068;12.058;2022-08-21T20:00:06;2.50;;;2.30;;
10041;SDS011;5061;49.068;12.058;2022-08-21T20:03:29;1.80;;;1.70;;
10041;SDS011;5061;49.068;12.058;2022-08-21T20:06:50;2.23;;;2.03;;
10041;SDS011;5061;49.068;12.058;2022-08-21T20:10:10;1.80;;;1.70;;
10041;SDS011;5061;49.068;12.058;2022-08-21T20:13:31;2.23;;;2.03;;
10041;SDS011;5061;49.068;12.058;2022-08-21T20:16:52;1.70;;;1.60;;
10041;SDS011;5061;49.068;12.058;2022-08-21T20:20:15;1.70;;;1.60;;
10041;SDS011;5061;49.068;12.058;2022-08-21T20:23:38;1.30;;;1.20;;
10041;SDS011;5061;49.068;12.058;2022-08-21T20:26:59;1.23;;;1.13;;
10041;SDS011;5061;49.068;12.058;2022-08-21T20:30:21;1.43;;;1.33;;
10041;SDS011;5061;49.068;12.058;2022-08-21T20:33:42;1.10;;;1.00;;
10041;SDS011;5061;49.068;12.058;2022-08-21T20:37:03;1.30;;;1.20;;
10041;SDS011;5061;49.068;12.058;2022-08-21T20:40:26;1.10;;;1.00;;
10041;SDS011;5061;49.068;12.058;2022-08-21T20:43:47;1.30;;;1.20;;
10041;SDS011;5061;49.068;12.058;2022-08-21T20:47:08;1.20;;;1.10;;
10041;SDS011;5061;49.068;12.058;2022-08-21T20:50:31;1.17;;;1.07;;
10041;SDS011;5061;49.068;12.058;2022-08-21T20:54:02;1.07;;;0.97;;
10041;SDS011;5061;49.068;12.058;2022-08-21T21:01:51;1.40;;;1.30;;
10041;SDS011;5061;49.068;12.058;2022-08-21T21:05:24;1.20;;;1.10;;
10041;SDS011;5061;49.068;12.058;2022-08-21T21:09:18;1.47;;;1.37;;
10041;SDS011;5061;49.068;12.058;2022-08-21T21:12:58;1.30;;;1.10;;
10041;SDS011;5061;49.068;12.058;2022-08-21T21:16:25;1.53;;;1.30;;
10041;SDS011;5061;49.068;12.058;2022-08-21T21:19:54;1.50;;;1.40;;
10041;SDS011;5061;49.068;12.058;2022-08-21T21:23:28;1.50;;;1.40;;
10041;SDS011;5061;49.068;12.058;2022-08-21T21:27:16;1.70;;;1.60;;
10041;SDS011;5061;49.068;12.058;2022-08-21T21:30:43;1.67;;;1.53;;
10041;SDS011;5061;49.068;12.058;2022-08-21T21:34:06;1.27;;;1.17;;
10041;SDS011;5061;49.068;12.058;2022-08-21T21:37:29;1.60;;;1.50;;
10041;SDS011;5061;49.068;12.058;2022-08-21T21:59:02;1.40;;;1.30;;
10041;SDS011;5061;49.068;12.058;2022-08-21T22:06:05;1.73;;;1.60;;